sensor_id;sensor_type;location;lat;lon;timestamp;temperature;humidity
10828;DHT22;5467;59.334;13.512;2022-09-13T00:00:52;15.30;99.90
10828;DHT22;5467;59.334;13.512;2022-09-13T00:03:19;15.40;99.90
10828;DHT22;5467;59.334;13.512;2022-09-13T00:05:47;15.40;99.90
10828;DHT22;5467;59.334;13.512;2022-09-13T00:08:15;15.40;99.90
10828;DHT22;5467;59.334;13.512;2022-09-13T00:10:44;15.40;99.90
10828;DHT22;5467;59.334;13.512;2022-09-13T00:13:13;15.50;99.90
10828;DHT22;5467;59.334;13.512;2022-09-13T00:15:42;15.30;99.90
10828;DHT22;5467;59.334;13.512;2022-09-13T00:18:09;15.40;99.90
10828;DHT22;5467;59.334;13.512;2022-09-13T00:20:37;15.30;99.90
10828;DHT22;5467;59.334;13.512;2022-09-13T00:23:04;15.30;99.90
10828;DHT22;5467;59.334;13.512;2022-09-13T00:25:31;15.30;99.90
10828;DHT22;5467;59.334;13.512;2022-09-13T00:27:59;15.30;99.90
10828;DHT22;5467;59.334;13.512;2022-09-13T00:30:26;15.40;99.90
10828;DHT22;5467;59.334;13.512;2022-09-13T00:32:53;15.40;99.90
10828;DHT22;5467;59.334;13.512;2022-09-13T00:35:20;15.40;99.90
10828;DHT22;5467;59.334;13.512;2022-09-13T00:37:48;15.30;99.90
10828;DHT22;5467;59.334;13.512;2022-09-13T00:40:15;15.30;99.90
10828;DHT22;5467;59.334;13.512;2022-09-13T00:42:42;15.40;99.90
10828;DHT22;5467;59.334;13.512;2022-09-13T00:45:18;15.40;99.90
10828;DHT22;5467;59.334;13.512;2022-09-13T00:47:48;15.40;99.90
10828;DHT22;5467;59.334;13.512;2022-09-13T00:50:20;15.40;99.90
10828;DHT22;5467;59.334;13.512;2022-09-13T00:52:51;15.40;99.90
10828;DHT22;5467;59.334;13.512;2022-09-13T00:55:26;15.30;99.90
10828;DHT22;5467;59.334;13.512;2022-09-13T00:57:58;15.30;99.90
10828;DHT22;5467;59.334;13.512;2022-09-13T01:00:28;15.30;99.90
10828;DHT22;5467;59.334;13.512;2022-09-13T01:02:58;15.20;99.90
10828;DHT22;5467;59.334;13.512;2022-09-13T01:05:29;15.10;99.90
10828;DHT22;5467;59.334;13.512;2022-09-13T01:07:59;15.20;99.90
10828;DHT22;5467;59.334;13.512;2022-09-13T01:10:26;15.20;99.90
10828;DHT22;5467;59.334;13.512;2022-09-13T01:13:00;15.20;99.90
10828;DHT22;5467;59.334;13.512;2022-09-13T01:15:37;15.20;99.90
10828;DHT22;5467;59.334;13.512;2022-09-13T01:18:05;15.10;99.90
10828;DHT22;5467;59.334;13.512;2022-09-13T01:20:43;15.10;99.90
10828;DHT22;5467;59.334;13.512;2022-09-13T01:23:35;14.90;99.90
10828;DHT22;5467;59.334;13.512;2022-09-13T01:26:41;14.90;99.90
10828;DHT22;5467;59.334;13.512;2022-09-13T01:32:35;14.80;99.90
10828;DHT22;5467;59.334;13.512;2022-09-13T01:35:14;14.80;99.90
10828;DHT22;5467;59.334;13.512;2022-09-13T01:37:50;14.60;99.90
10828;DHT22;5467;59.334;13.512;2022-09-13T01:40:28;14.60;99.90
10828;DHT22;5467;59.334;13.512;2022-09-13T01:43:19;14.40;99.90
10828;DHT22;5467;59.334;13.512;2022-09-13T01:45:54;14.40;99.90
10828;DHT22;5467;59.334;13.512;2022-09-13T01:48:32;14.40;99.90
10828;DHT22;5467;59.334;13.512;2022-09-13T01:51:02;14.20;99.90
10828;DHT22;5467;59.334;13.512;2022-09-13T01:53:34;14.20;99.90
10828;DHT22;5467;59.334;13.512;2022-09-13T01:56:08;14.20;99.90
10828;DHT22;5467;59.334;13.512;2022-09-13T01:58:40;14.10;99.90
10828;DHT22;5467;59.334;13.512;2022-09-13T02:01:13;14.00;99.90
10828;DHT22;5467;59.334;13.512;2022-09-13T02:03:48;14.00;99.90
10828;DHT22;5467;59.334;13.512;2022-09-13T02:06:22;14.00;99.90
10828;DHT22;5467;59.334;13.512;2022-09-13T02:08:54;14.00;99.90
10828;DHT22;5467;59.334;13.512;2022-09-13T02:11:23;14.00;99.90
10828;DHT22;5467;59.334;13.512;2022-09-13T02:13:54;14.00;99.90
10828;DHT22;5467;59.334;13.512;2022-09-13T02:16:28;14.00;99.90
10828;DHT22;5467;59.334;13.512;2022-09-13T02:18:59;14.00;99.90
10828;DHT22;5467;59.334;13.512;2022-09-13T02:21:31;14.00;99.90
10828;DHT22;5467;59.334;13.512;2022-09-13T02:24:02;14.00;99.90
10828;DHT22;5467;59.334;13.512;2022-09-13T02:26:33;14.00;99.90
10828;DHT22;5467;59.334;13.512;2022-09-13T02:29:05;13.90;99.90
10828;DHT22;5467;59.334;13.512;2022-09-13T02:31:36;13.90;99.90
10828;DHT22;5467;59.334;13.512;2022-09-13T02:34:09;13.80;99.90
10828;DHT22;5467;59.334;13.512;2022-09-13T02:36:38;13.80;99.90
10828;DHT22;5467;59.334;13.512;2022-09-13T02:39:10;13.90;99.90
10828;DHT22;5467;59.334;13.512;2022-09-13T02:41:43;13.90;99.90
10828;DHT22;5467;59.334;13.512;2022-09-13T02:44:15;13.90;99.90
10828;DHT22;5467;59.334;13.512;2022-09-13T02:46:59;14.00;99.90
10828;DHT22;5467;59.334;13.512;2022-09-13T02:49:41;13.90;99.90
10828;DHT22;5467;59.334;13.512;2022-09-13T02:52:19;13.90;99.90
10828;DHT22;5467;59.334;13.512;2022-09-13T02:54:51;13.90;99.90
10828;DHT22;5467;59.334;13.512;2022-09-13T02:57:26;13.90;99.90
10828;DHT22;5467;59.334;13.512;2022-09-13T02:59:56;13.90;99.90
10828;DHT22;5467;59.334;13.512;2022-09-13T03:02:27;13.90;99.90
10828;DHT22;5467;59.334;13.512;2022-09-13T03:04:58;13.90;99.90
10828;DHT22;5467;59.334;13.512;2022-09-13T03:07:26;13.90;99.90
10828;DHT22;5467;59.334;13.512;2022-09-13T03:09:56;13.80;99.90
10828;DHT22;5467;59.334;13.512;2022-09-13T03:15:20;13.80;99.90
10828;DHT22;5467;59.334;13.512;2022-09-13T03:17:54;13.70;99.90
10828;DHT22;5467;59.334;13.512;2022-09-13T03:20:35;13.70;99.90
10828;DHT22;5467;59.334;13.512;2022-09-13T03:23:23;13.70;99.90
10828;DHT22;5467;59.334;13.512;2022-09-13T03:26:15;13.60;99.90
10828;DHT22;5467;59.334;13.512;2022-09-13T03:28:59;13.50;99.90
10828;DHT22;5467;59.334;13.512;2022-09-13T03:31:32;13.60;99.90
10828;DHT22;5467;59.334;13.512;2022-09-13T03:34:07;13.60;99.90
10828;DHT22;5467;59.334;13.512;2022-09-13T03:36:41;13.60;99.90
10828;DHT22;5467;59.334;13.512;2022-09-13T03:39:15;13.60;99.90
10828;DHT22;5467;59.334;13.512;2022-09-13T03:41:51;13.60;99.90
10828;DHT22;5467;59.334;13.512;2022-09-13T03:44:22;13.60;99.90
10828;DHT22;5467;59.334;13.512;2022-09-13T03:46:53;13.60;99.90
10828;DHT22;5467;59.334;13.512;2022-09-13T03:49:24;13.60;99.90
10828;DHT22;5467;59.334;13.512;2022-09-13T03:51:53;13.50;99.90
10828;DHT22;5467;59.334;13.512;2022-09-13T03:54:23;13.60;99.90
10828;DHT22;5467;59.334;13.512;2022-09-13T03:57:10;13.70;99.90
10828;DHT22;5467;59.334;13.512;2022-09-13T03:59:39;13.60;99.90
10828;DHT22;5467;59.334;13.512;2022-09-13T04:02:07;13.60;99.90
10828;DHT22;5467;59.334;13.512;2022-09-13T04:04:37;13.60;99.90
10828;DHT22;5467;59.334;13.512;2022-09-13T04:07:07;13.70;99.90
10828;DHT22;5467;59.334;13.512;2022-09-13T04:09:35;13.70;99.90
10828;DHT22;5467;59.334;13.512;2022-09-13T04:12:03;13.70;99.90
10828;DHT22;5467;59.334;13.512;2022-09-13T04:14:30;13.70;99.90
10828;DHT22;5467;59.334;13.512;2022-09-13T04:16:58;13.70;99.90
10828;DHT22;5467;59.334;13.512;2022-09-13T04:19:25;13.60;99.90
10828;DHT22;5467;59.334;13.512;2022-09-13T04:21:53;13.60;99.90
10828;DHT22;5467;59.334;13.512;2022-09-13T04:24:24;13.60;99.90
10828;DHT22;5467;59.334;13.512;2022-09-13T04:26:52;13.70;99.90
10828;DHT22;5467;59.334;13.512;2022-09-13T04:29:19;13.60;99.90
10828;DHT22;5467;59.334;13.512;2022-09-13T04:31:47;13.60;99.90
10828;DHT22;5467;59.334;13.512;2022-09-13T04:34:15;13.70;99.90
10828;DHT22;5467;59.334;13.512;2022-09-13T04:36:43;13.70;99.90
10828;DHT22;5467;59.334;13.512;2022-09-13T04:39:10;13.70;99.90
10828;DHT22;5467;59.334;13.512;2022-09-13T04:41:40;13.70;99.90
10828;DHT22;5467;59.334;13.512;2022-09-13T04:44:08;13.70;99.90
10828;DHT22;5467;59.334;13.512;2022-09-13T04:46:35;13.70;99.90
10828;DHT22;5467;59.334;13.512;2022-09-13T04:49:02;13.70;99.90
10828;DHT22;5467;59.334;13.512;2022-09-13T04:51:29;13.70;99.90
10828;DHT22;5467;59.334;13.512;2022-09-13T04:53:56;13.80;99.90
10828;DHT22;5467;59.334;13.512;2022-09-13T04:56:25;13.80;99.90
10828;DHT22;5467;59.334;13.512;2022-09-13T04:58:54;13.80;99.90
10828;DHT22;5467;59.334;13.512;2022-09-13T05:01:22;13.80;99.90
10828;DHT22;5467;59.334;13.512;2022-09-13T05:03:50;13.80;99.90
10828;DHT22;5467;59.334;13.512;2022-09-13T05:06:18;13.80;99.90
10828;DHT22;5467;59.334;13.512;2022-09-13T05:08:49;13.80;99.90
10828;DHT22;5467;59.334;13.512;2022-09-13T05:11:17;13.90;99.90
10828;DHT22;5467;59.334;13.512;2022-09-13T05:13:48;13.90;99.90
10828;DHT22;5467;59.334;13.512;2022-09-13T05:16:19;13.90;99.90
10828;DHT22;5467;59.334;13.512;2022-09-13T05:18:46;13.90;99.90
10828;DHT22;5467;59.334;13.512;2022-09-13T05:21:13;13.90;99.90
10828;DHT22;5467;59.334;13.512;2022-09-13T05:23:40;13.90;99.90
10828;DHT22;5467;59.334;13.512;2022-09-13T05:26:07;14.00;99.90
10828;DHT22;5467;59.334;13.512;2022-09-13T05:28:35;13.90;99.90
10828;DHT22;5467;59.334;13.512;2022-09-13T05:31:04;13.90;99.90
10828;DHT22;5467;59.334;13.512;2022-09-13T05:33:35;13.90;99.90
10828;DHT22;5467;59.334;13.512;2022-09-13T05:36:03;13.90;99.90
10828;DHT22;5467;59.334;13.512;2022-09-13T05:38:31;13.90;99.90
10828;DHT22;5467;59.334;13.512;2022-09-13T05:40:59;13.90;99.90
10828;DHT22;5467;59.334;13.512;2022-09-13T05:43:28;14.00;99.90
10828;DHT22;5467;59.334;13.512;2022-09-13T05:46:02;14.00;99.90
10828;DHT22;5467;59.334;13.512;2022-09-13T05:48:30;14.10;99.90
10828;DHT22;5467;59.334;13.512;2022-09-13T05:51:05;14.10;99.90
10828;DHT22;5467;59.334;13.512;2022-09-13T05:53:32;14.00;99.90
10828;DHT22;5467;59.334;13.512;2022-09-13T05:55:59;14.10;99.90
10828;DHT22;5467;59.334;13.512;2022-09-13T05:58:26;14.10;99.90
10828;DHT22;5467;59.334;13.512;2022-09-13T06:00:53;14.10;99.90
10828;DHT22;5467;59.334;13.512;2022-09-13T06:03:21;14.10;99.90
10828;DHT22;5467;59.334;13.512;2022-09-13T06:05:48;14.10;99.90
10828;DHT22;5467;59.334;13.512;2022-09-13T06:08:17;14.10;99.90
10828;DHT22;5467;59.334;13.512;2022-09-13T06:10:53;14.20;99.90
10828;DHT22;5467;59.334;13.512;2022-09-13T06:13:20;14.10;99.90
10828;DHT22;5467;59.334;13.512;2022-09-13T06:15:47;14.10;99.90
10828;DHT22;5467;59.334;13.512;2022-09-13T06:18:14;14.00;99.90
10828;DHT22;5467;59.334;13.512;2022-09-13T06:20:42;14.00;99.90
10828;DHT22;5467;59.334;13.512;2022-09-13T06:23:09;14.00;99.90
10828;DHT22;5467;59.334;13.512;2022-09-13T06:25:37;14.00;99.90
10828;DHT22;5467;59.334;13.512;2022-09-13T06:28:04;13.90;99.90
10828;DHT22;5467;59.334;13.512;2022-09-13T06:30:31;13.90;99.90
10828;DHT22;5467;59.334;13.512;2022-09-13T06:32:58;13.90;99.90
10828;DHT22;5467;59.334;13.512;2022-09-13T06:35:25;14.00;99.90
10828;DHT22;5467;59.334;13.512;2022-09-13T06:37:54;14.10;99.90
10828;DHT22;5467;59.334;13.512;2022-09-13T06:40:22;14.10;99.90
10828;DHT22;5467;59.334;13.512;2022-09-13T06:42:51;14.00;99.90
10828;DHT22;5467;59.334;13.512;2022-09-13T06:45:17;14.10;99.90
10828;DHT22;5467;59.334;13.512;2022-09-13T06:47:44;14.10;99.90
10828;DHT22;5467;59.334;13.512;2022-09-13T06:50:11;14.10;99.90
10828;DHT22;5467;59.334;13.512;2022-09-13T06:52:39;14.20;99.90
10828;DHT22;5467;59.334;13.512;2022-09-13T06:55:06;14.20;99.90
10828;DHT22;5467;59.334;13.512;2022-09-13T06:57:33;14.20;99.90
10828;DHT22;5467;59.334;13.512;2022-09-13T07:00:03;14.20;99.90
10828;DHT22;5467;59.334;13.512;2022-09-13T07:02:30;14.30;99.90
10828;DHT22;5467;59.334;13.512;2022-09-13T07:04:57;14.30;99.90
10828;DHT22;5467;59.334;13.512;2022-09-13T07:07:24;14.40;99.90
10828;DHT22;5467;59.334;13.512;2022-09-13T07:09:51;14.40;99.90
10828;DHT22;5467;59.334;13.512;2022-09-13T07:12:18;14.50;99.90
10828;DHT22;5467;59.334;13.512;2022-09-13T07:14:45;14.70;99.90
10828;DHT22;5467;59.334;13.512;2022-09-13T07:17:13;14.70;99.90
10828;DHT22;5467;59.334;13.512;2022-09-13T07:19:40;14.80;99.90
10828;DHT22;5467;59.334;13.512;2022-09-13T07:22:07;14.80;99.90
10828;DHT22;5467;59.334;13.512;2022-09-13T07:24:34;14.90;99.90
10828;DHT22;5467;59.334;13.512;2022-09-13T07:27:01;14.90;99.90
10828;DHT22;5467;59.334;13.512;2022-09-13T07:29:28;14.80;99.90
10828;DHT22;5467;59.334;13.512;2022-09-13T07:31:55;14.80;99.90
10828;DHT22;5467;59.334;13.512;2022-09-13T07:34:25;14.60;99.90
10828;DHT22;5467;59.334;13.512;2022-09-13T07:36:53;14.60;99.90
10828;DHT22;5467;59.334;13.512;2022-09-13T07:39:20;14.50;99.90
10828;DHT22;5467;59.334;13.512;2022-09-13T07:41:47;14.40;99.90
10828;DHT22;5467;59.334;13.512;2022-09-13T07:44:14;14.30;99.90
10828;DHT22;5467;59.334;13.512;2022-09-13T07:46:41;14.40;99.90
10828;DHT22;5467;59.334;13.512;2022-09-13T07:49:10;14.50;99.90
10828;DHT22;5467;59.334;13.512;2022-09-13T07:51:41;14.50;99.90
10828;DHT22;5467;59.334;13.512;2022-09-13T07:54:10;14.50;99.90
10828;DHT22;5467;59.334;13.512;2022-09-13T07:56:39;14.70;99.90
10828;DHT22;5467;59.334;13.512;2022-09-13T07:59:09;14.60;99.90
10828;DHT22;5467;59.334;13.512;2022-09-13T08:01:38;14.60;99.90
10828;DHT22;5467;59.334;13.512;2022-09-13T08:04:07;14.60;99.90
10828;DHT22;5467;59.334;13.512;2022-09-13T08:06:35;14.60;99.90
10828;DHT22;5467;59.334;13.512;2022-09-13T08:09:05;14.70;99.90
10828;DHT22;5467;59.334;13.512;2022-09-13T08:11:35;14.70;99.90
10828;DHT22;5467;59.334;13.512;2022-09-13T08:14:03;14.70;99.90
10828;DHT22;5467;59.334;13.512;2022-09-13T08:16:31;14.70;99.90
10828;DHT22;5467;59.334;13.512;2022-09-13T08:18:59;14.80;99.90
10828;DHT22;5467;59.334;13.512;2022-09-13T08:21:31;15.10;99.90
10828;DHT22;5467;59.334;13.512;2022-09-13T08:23:58;15.30;99.90
10828;DHT22;5467;59.334;13.512;2022-09-13T08:26:28;15.20;99.90
10828;DHT22;5467;59.334;13.512;2022-09-13T08:28:56;15.20;99.90
10828;DHT22;5467;59.334;13.512;2022-09-13T08:31:24;15.10;99.90
10828;DHT22;5467;59.334;13.512;2022-09-13T08:33:51;15.10;99.90
10828;DHT22;5467;59.334;13.512;2022-09-13T08:36:19;14.90;99.90
10828;DHT22;5467;59.334;13.512;2022-09-13T08:38:49;15.00;99.90
10828;DHT22;5467;59.334;13.512;2022-09-13T08:41:32;14.90;99.90
10828;DHT22;5467;59.334;13.512;2022-09-13T08:44:07;14.90;99.90
10828;DHT22;5467;59.334;13.512;2022-09-13T08:46:40;15.00;99.90
10828;DHT22;5467;59.334;13.512;2022-09-13T08:49:13;14.90;99.90
10828;DHT22;5467;59.334;13.512;2022-09-13T08:51:45;15.00;99.90
10828;DHT22;5467;59.334;13.512;2022-09-13T08:54:14;15.10;99.90
10828;DHT22;5467;59.334;13.512;2022-09-13T08:56:50;15.10;99.90
10828;DHT22;5467;59.334;13.512;2022-09-13T08:59:32;15.20;99.90
10828;DHT22;5467;59.334;13.512;2022-09-13T09:02:15;15.20;99.90
10828;DHT22;5467;59.334;13.512;2022-09-13T09:04:49;15.10;99.90
10828;DHT22;5467;59.334;13.512;2022-09-13T09:07:21;15.10;99.90
10828;DHT22;5467;59.334;13.512;2022-09-13T09:09:51;15.20;99.90
10828;DHT22;5467;59.334;13.512;2022-09-13T09:12:25;15.20;99.90
10828;DHT22;5467;59.334;13.512;2022-09-13T09:14:59;15.10;99.90
10828;DHT22;5467;59.334;13.512;2022-09-13T09:17:31;15.20;99.90
10828;DHT22;5467;59.334;13.512;2022-09-13T09:20:06;15.10;99.90
10828;DHT22;5467;59.334;13.512;2022-09-13T09:22:35;15.00;99.90
10828;DHT22;5467;59.334;13.512;2022-09-13T09:25:03;15.00;99.90
10828;DHT22;5467;59.334;13.512;2022-09-13T09:27:32;14.90;99.90
10828;DHT22;5467;59.334;13.512;2022-09-13T09:30:00;14.80;99.90
10828;DHT22;5467;59.334;13.512;2022-09-13T09:32:40;14.80;99.90
10828;DHT22;5467;59.334;13.512;2022-09-13T09:35:15;14.90;99.90
10828;DHT22;5467;59.334;13.512;2022-09-13T09:38:02;15.20;99.90
10828;DHT22;5467;59.334;13.512;2022-09-13T09:40:34;15.30;99.90
10828;DHT22;5467;59.334;13.512;2022-09-13T09:43:12;15.30;99.90
10828;DHT22;5467;59.334;13.512;2022-09-13T09:45:42;15.10;99.90
10828;DHT22;5467;59.334;13.512;2022-09-13T09:48:15;15.00;99.90
10828;DHT22;5467;59.334;13.512;2022-09-13T09:50:48;15.10;99.90
10828;DHT22;5467;59.334;13.512;2022-09-13T09:53:21;15.40;99.90
10828;DHT22;5467;59.334;13.512;2022-09-13T09:55:53;15.60;99.90
10828;DHT22;5467;59.334;13.512;2022-09-13T09:58:36;15.40;99.90
10828;DHT22;5467;59.334;13.512;2022-09-13T10:01:04;15.20;99.90
10828;DHT22;5467;59.334;13.512;2022-09-13T10:03:32;14.60;99.90
10828;DHT22;5467;59.334;13.512;2022-09-13T10:06:05;14.30;99.90
10828;DHT22;5467;59.334;13.512;2022-09-13T10:08:34;14.20;99.90
10828;DHT22;5467;59.334;13.512;2022-09-13T10:11:03;13.90;99.90
10828;DHT22;5467;59.334;13.512;2022-09-13T10:13:31;13.70;99.90
10828;DHT22;5467;59.334;13.512;2022-09-13T10:16:00;14.00;99.90
10828;DHT22;5467;59.334;13.512;2022-09-13T10:18:28;14.20;99.90
10828;DHT22;5467;59.334;13.512;2022-09-13T10:21:02;14.30;99.90
10828;DHT22;5467;59.334;13.512;2022-09-13T10:23:30;14.50;99.90
10828;DHT22;5467;59.334;13.512;2022-09-13T10:26:01;14.60;99.90
10828;DHT22;5467;59.334;13.512;2022-09-13T10:28:31;14.80;99.90
10828;DHT22;5467;59.334;13.512;2022-09-13T10:31:02;15.30;99.90
10828;DHT22;5467;59.334;13.512;2022-09-13T10:33:32;15.40;99.90
10828;DHT22;5467;59.334;13.512;2022-09-13T10:36:02;15.50;99.90
10828;DHT22;5467;59.334;13.512;2022-09-13T10:38:33;15.70;99.90
10828;DHT22;5467;59.334;13.512;2022-09-13T10:41:03;15.90;99.90
10828;DHT22;5467;59.334;13.512;2022-09-13T10:43:31;16.10;99.90
10828;DHT22;5467;59.334;13.512;2022-09-13T10:46:02;16.30;99.90
10828;DHT22;5467;59.334;13.512;2022-09-13T10:48:42;16.30;99.90
10828;DHT22;5467;59.334;13.512;2022-09-13T10:51:20;16.20;99.90
10828;DHT22;5467;59.334;13.512;2022-09-13T10:53:47;16.40;99.90
10828;DHT22;5467;59.334;13.512;2022-09-13T10:56:20;16.10;99.90
10828;DHT22;5467;59.334;13.512;2022-09-13T10:58:47;15.80;99.90
10828;DHT22;5467;59.334;13.512;2022-09-13T11:01:39;15.70;99.90
10828;DHT22;5467;59.334;13.512;2022-09-13T11:04:46;15.70;99.90
10828;DHT22;5467;59.334;13.512;2022-09-13T11:07:29;15.50;99.90
10828;DHT22;5467;59.334;13.512;2022-09-13T11:10:00;15.60;99.90
10828;DHT22;5467;59.334;13.512;2022-09-13T11:12:34;15.80;99.90
10828;DHT22;5467;59.334;13.512;2022-09-13T11:15:12;15.70;99.90
10828;DHT22;5467;59.334;13.512;2022-09-13T11:18:10;16.00;99.90
10828;DHT22;5467;59.334;13.512;2022-09-13T11:20:46;16.00;99.90
10828;DHT22;5467;59.334;13.512;2022-09-13T11:26:39;16.20;99.90
10828;DHT22;5467;59.334;13.512;2022-09-13T11:29:27;16.60;99.90
10828;DHT22;5467;59.334;13.512;2022-09-13T11:32:02;16.50;99.90
10828;DHT22;5467;59.334;13.512;2022-09-13T11:34:43;16.70;99.90
10828;DHT22;5467;59.334;13.512;2022-09-13T11:40:27;16.90;99.90
10828;DHT22;5467;59.334;13.512;2022-09-13T11:43:09;16.90;99.90
10828;DHT22;5467;59.334;13.512;2022-09-13T11:45:43;17.00;99.90
10828;DHT22;5467;59.334;13.512;2022-09-13T11:48:34;17.00;99.90
10828;DHT22;5467;59.334;13.512;2022-09-13T11:51:14;16.90;99.90
10828;DHT22;5467;59.334;13.512;2022-09-13T11:53:54;16.90;99.90
10828;DHT22;5467;59.334;13.512;2022-09-13T11:56:28;17.10;99.90
10828;DHT22;5467;59.334;13.512;2022-09-13T11:59:07;16.80;99.90
10828;DHT22;5467;59.334;13.512;2022-09-13T12:01:38;16.60;99.90
10828;DHT22;5467;59.334;13.512;2022-09-13T12:04:12;16.80;99.90
10828;DHT22;5467;59.334;13.512;2022-09-13T12:06:47;16.60;99.90
10828;DHT22;5467;59.334;13.512;2022-09-13T12:09:19;16.20;99.90
10828;DHT22;5467;59.334;13.512;2022-09-13T12:11:51;16.10;99.90
10828;DHT22;5467;59.334;13.512;2022-09-13T12:14:21;16.00;99.90
10828;DHT22;5467;59.334;13.512;2022-09-13T12:16:50;15.90;99.90
10828;DHT22;5467;59.334;13.512;2022-09-13T12:19:22;15.90;99.90
10828;DHT22;5467;59.334;13.512;2022-09-13T12:21:52;16.10;99.90
10828;DHT22;5467;59.334;13.512;2022-09-13T12:24:26;16.30;99.90
10828;DHT22;5467;59.334;13.512;2022-09-13T12:26:57;16.20;99.90
10828;DHT22;5467;59.334;13.512;2022-09-13T12:29:28;16.30;99.90
10828;DHT22;5467;59.334;13.512;2022-09-13T12:32:00;16.30;99.90
10828;DHT22;5467;59.334;13.512;2022-09-13T12:34:33;16.30;99.90
10828;DHT22;5467;59.334;13.512;2022-09-13T12:37:14;16.00;99.90
10828;DHT22;5467;59.334;13.512;2022-09-13T12:43:15;15.10;99.90
10828;DHT22;5467;59.334;13.512;2022-09-13T12:46:00;15.10;99.90
10828;DHT22;5467;59.334;13.512;2022-09-13T12:49:06;15.00;99.90
10828;DHT22;5467;59.334;13.512;2022-09-13T12:51:49;14.90;99.90
10828;DHT22;5467;59.334;13.512;2022-09-13T12:54:44;15.00;99.90
10828;DHT22;5467;59.334;13.512;2022-09-13T12:57:26;15.00;99.90
10828;DHT22;5467;59.334;13.512;2022-09-13T13:00:12;15.10;99.90
10828;DHT22;5467;59.334;13.512;2022-09-13T13:02:50;15.20;99.90
10828;DHT22;5467;59.334;13.512;2022-09-13T13:05:23;15.20;99.90
10828;DHT22;5467;59.334;13.512;2022-09-13T13:07:53;15.20;99.90
10828;DHT22;5467;59.334;13.512;2022-09-13T13:10:29;15.20;99.90
10828;DHT22;5467;59.334;13.512;2022-09-13T13:13:12;15.20;99.90
10828;DHT22;5467;59.334;13.512;2022-09-13T13:15:59;15.20;99.90
10828;DHT22;5467;59.334;13.512;2022-09-13T13:18:28;15.20;99.90
10828;DHT22;5467;59.334;13.512;2022-09-13T13:21:22;15.10;99.90
10828;DHT22;5467;59.334;13.512;2022-09-13T13:26:53;14.80;99.90
10828;DHT22;5467;59.334;13.512;2022-09-13T13:29:21;14.30;99.90
10828;DHT22;5467;59.334;13.512;2022-09-13T13:32:08;14.10;99.90
10828;DHT22;5467;59.334;13.512;2022-09-13T13:34:39;14.00;99.90
10828;DHT22;5467;59.334;13.512;2022-09-13T13:37:31;13.70;99.90
10828;DHT22;5467;59.334;13.512;2022-09-13T13:40:29;13.50;99.90
10828;DHT22;5467;59.334;13.512;2022-09-13T13:43:24;13.30;99.90
10828;DHT22;5467;59.334;13.512;2022-09-13T13:46:22;13.30;99.90
10828;DHT22;5467;59.334;13.512;2022-09-13T13:48:49;13.10;99.90
10828;DHT22;5467;59.334;13.512;2022-09-13T13:51:25;13.10;99.90
10828;DHT22;5467;59.334;13.512;2022-09-13T13:54:02;13.10;99.90
10828;DHT22;5467;59.334;13.512;2022-09-13T13:56:45;13.00;99.90
10828;DHT22;5467;59.334;13.512;2022-09-13T13:59:18;13.00;99.90
10828;DHT22;5467;59.334;13.512;2022-09-13T14:01:51;13.00;99.90
10828;DHT22;5467;59.334;13.512;2022-09-13T14:04:42;13.10;99.90
10828;DHT22;5467;59.334;13.512;2022-09-13T14:10:19;13.30;99.90
10828;DHT22;5467;59.334;13.512;2022-09-13T14:13:09;13.40;99.90
10828;DHT22;5467;59.334;13.512;2022-09-13T14:15:49;13.70;99.90
10828;DHT22;5467;59.334;13.512;2022-09-13T14:21:19;14.00;99.90
10828;DHT22;5467;59.334;13.512;2022-09-13T14:23:46;14.10;99.90
10828;DHT22;5467;59.334;13.512;2022-09-13T14:26:13;14.20;99.90
10828;DHT22;5467;59.334;13.512;2022-09-13T14:28:43;14.10;99.90
10828;DHT22;5467;59.334;13.512;2022-09-13T14:31:17;14.00;99.90
10828;DHT22;5467;59.334;13.512;2022-09-13T14:33:45;14.00;99.90
10828;DHT22;5467;59.334;13.512;2022-09-13T14:36:19;13.90;99.90
10828;DHT22;5467;59.334;13.512;2022-09-13T14:38:48;13.90;99.90
10828;DHT22;5467;59.334;13.512;2022-09-13T14:41:16;13.80;99.90
10828;DHT22;5467;59.334;13.512;2022-09-13T14:43:44;13.70;99.90
10828;DHT22;5467;59.334;13.512;2022-09-13T14:46:18;13.80;99.90
10828;DHT22;5467;59.334;13.512;2022-09-13T14:48:49;13.80;99.90
10828;DHT22;5467;59.334;13.512;2022-09-13T14:51:21;14.00;99.90
10828;DHT22;5467;59.334;13.512;2022-09-13T14:53:51;13.90;99.90
10828;DHT22;5467;59.334;13.512;2022-09-13T14:56:29;13.90;99.90
10828;DHT22;5467;59.334;13.512;2022-09-13T14:59:01;13.70;99.90
10828;DHT22;5467;59.334;13.512;2022-09-13T15:01:33;13.70;99.90
10828;DHT22;5467;59.334;13.512;2022-09-13T15:04:02;13.70;99.90
10828;DHT22;5467;59.334;13.512;2022-09-13T15:06:32;13.70;99.90
10828;DHT22;5467;59.334;13.512;2022-09-13T15:09:13;13.50;99.90
10828;DHT22;5467;59.334;13.512;2022-09-13T15:11:54;13.60;99.90
10828;DHT22;5467;59.334;13.512;2022-09-13T15:14:26;13.70;99.90
10828;DHT22;5467;59.334;13.512;2022-09-13T15:17:05;13.70;99.90
10828;DHT22;5467;59.334;13.512;2022-09-13T15:19:38;13.60;99.90
10828;DHT22;5467;59.334;13.512;2022-09-13T15:22:18;13.70;99.90
10828;DHT22;5467;59.334;13.512;2022-09-13T15:24:48;13.80;99.90
10828;DHT22;5467;59.334;13.512;2022-09-13T15:27:18;13.80;99.90
10828;DHT22;5467;59.334;13.512;2022-09-13T15:29:51;13.90;99.90
10828;DHT22;5467;59.334;13.512;2022-09-13T15:32:22;14.00;99.90
10828;DHT22;5467;59.334;13.512;2022-09-13T15:34:50;14.00;99.90
10828;DHT22;5467;59.334;13.512;2022-09-13T15:37:17;13.90;99.90
10828;DHT22;5467;59.334;13.512;2022-09-13T15:40:13;13.90;99.90
10828;DHT22;5467;59.334;13.512;2022-09-13T15:42:44;13.90;99.90
10828;DHT22;5467;59.334;13.512;2022-09-13T15:45:12;14.00;99.90
10828;DHT22;5467;59.334;13.512;2022-09-13T15:47:42;14.00;99.90
10828;DHT22;5467;59.334;13.512;2022-09-13T15:50:18;14.10;99.90
10828;DHT22;5467;59.334;13.512;2022-09-13T15:52:46;14.00;99.90
10828;DHT22;5467;59.334;13.512;2022-09-13T15:55:13;14.20;99.90
10828;DHT22;5467;59.334;13.512;2022-09-13T15:57:42;14.30;99.90
10828;DHT22;5467;59.334;13.512;2022-09-13T16:00:14;14.10;99.90
10828;DHT22;5467;59.334;13.512;2022-09-13T16:02:43;14.00;99.90
10828;DHT22;5467;59.334;13.512;2022-09-13T16:05:10;14.10;99.90
10828;DHT22;5467;59.334;13.512;2022-09-13T16:07:38;14.10;99.90
10828;DHT22;5467;59.334;13.512;2022-09-13T16:10:10;14.00;99.90
10828;DHT22;5467;59.334;13.512;2022-09-13T16:12:38;14.00;99.90
10828;DHT22;5467;59.334;13.512;2022-09-13T16:15:06;14.00;99.90
10828;DHT22;5467;59.334;13.512;2022-09-13T16:17:34;13.90;99.90
10828;DHT22;5467;59.334;13.512;2022-09-13T16:20:03;13.80;99.90
10828;DHT22;5467;59.334;13.512;2022-09-13T16:22:31;13.90;99.90
10828;DHT22;5467;59.334;13.512;2022-09-13T16:24:58;13.90;99.90
10828;DHT22;5467;59.334;13.512;2022-09-13T16:27:25;13.80;99.90